Time;durP1;ratioP1;P1;durP2;ratioP2;P2;SDS_P1;SDS_P2;PMS_P1;PMS_P2;Temp;Humidity;BMP_temperature;BMP_pressure;BME280_temperature;BME280_humidity;BME280_pressure;Samples;Min_cycle;Max_cycle;Signal;HPM_P1;HPM_P2
2022/12/08 00:01:23;;;;;;;6.25;0.80;;;3.00;99.90;;;;;;5084155;28;20430;-74
2022/12/08 00:03:50;;;;;;;4.80;0.82;;;3.00;99.90;;;;;;5081019;28;20804;-74
2022/12/08 00:09:22;;;;;;;4.95;1.00;;;3.00;99.90;;;;;;5077537;28;20414;-74
2022/12/08 00:12:03;;;;;;;7.53;1.13;;;2.90;99.90;;;;;;5071261;28;20403;-74
2022/12/08 00:14:32;;;;;;;7.25;1.00;;;2.90;99.90;;;;;;5088406;28;20905;-74
2022/12/08 00:16:58;;;;;;;5.10;1.10;;;2.90;99.90;;;;;;5083362;28;20843;-74
2022/12/08 00:19:25;;;;;;;4.38;1.30;;;2.90;99.90;;;;;;5064112;28;20406;-74
2022/12/08 00:21:52;;;;;;;4.88;1.30;;;2.90;99.90;;;;;;5089021;28;21103;-74
2022/12/08 00:24:19;;;;;;;9.65;1.20;;;2.80;99.90;;;;;;5076221;28;20400;-74
2022/12/08 00:26:45;;;;;;;4.88;1.35;;;2.80;99.90;;;;;;5087905;28;21205;-74
2022/12/08 00:29:12;;;;;;;7.43;1.38;;;2.80;99.90;;;;;;5089638;28;20406;-74
2022/12/08 00:31:38;;;;;;;6.65;0.80;;;2.80;99.90;;;;;;5075227;28;20935;-74
2022/12/08 00:34:03;;;;;;;7.67;0.80;;;2.80;99.90;;;;;;5089582;28;20402;-74
2022/12/08 00:36:29;;;;;;;5.17;0.77;;;2.80;99.90;;;;;;5087501;28;20413;-74
2022/12/08 00:38:55;;;;;;;4.72;0.70;;;2.80;99.90;;;;;;5087764;28;20409;-74
2022/12/08 00:44:10;;;;;;;3.03;0.73;;;2.70;99.90;;;;;;5088766;28;20410;-74
2022/12/08 00:46:36;;;;;;;4.32;0.50;;;2.70;99.90;;;;;;5088958;28;20892;-74
2022/12/08 00:49:02;;;;;;;2.42;0.35;;;2.70;99.90;;;;;;5086194;28;20412;-74
2022/12/08 00:51:28;;;;;;;5.05;0.45;;;2.60;99.90;;;;;;5087373;28;20398;-74
2022/12/08 00:53:54;;;;;;;3.60;0.30;;;2.60;99.90;;;;;;5074013;28;20404;-74
2022/12/08 00:56:19;;;;;;;2.78;0.20;;;2.60;99.90;;;;;;5088958;28;20429;-74
2022/12/08 00:58:45;;;;;;;3.93;0.50;;;2.60;99.90;;;;;;5088392;28;20480;-74
2022/12/08 01:01:12;;;;;;;3.90;0.30;;;2.60;99.90;;;;;;5088359;28;20446;-74
2022/12/08 01:03:38;;;;;;;3.05;0.30;;;2.60;99.90;;;;;;5087758;28;21044;-74
2022/12/08 01:06:05;;;;;;;3.60;0.60;;;2.60;99.90;;;;;;5087380;28;20434;-74
2022/12/08 01:08:31;;;;;;;6.47;0.70;;;2.60;99.90;;;;;;5085886;28;20838;-74
2022/12/08 01:11:01;;;;;;;4.30;0.60;;;2.50;99.90;;;;;;5087073;28;20398;-74
2022/12/08 01:13:27;;;;;;;5.00;0.55;;;2.50;99.90;;;;;;5082191;28;20460;-74
2022/12/08 01:15:52;;;;;;;4.70;0.60;;;2.50;99.90;;;;;;5069917;28;20406;-74
2022/12/08 01:18:18;;;;;;;5.63;0.70;;;2.60;99.90;;;;;;5083813;28;20919;-74
2022/12/08 01:20:43;;;;;;;3.10;0.57;;;2.60;99.90;;;;;;5083550;28;20413;-74
2022/12/08 01:23:09;;;;;;;4.88;0.38;;;2.60;99.90;;;;;;5087749;28;20402;-74
2022/12/08 01:25:35;;;;;;;4.30;0.50;;;2.70;99.90;;;;;;5086228;28;20405;-74
2022/12/08 01:28:00;;;;;;;2.10;0.30;;;2.70;99.90;;;;;;5085960;28;20414;-74
2022/12/08 01:30:26;;;;;;;4.03;0.50;;;2.80;99.90;;;;;;5088240;28;20964;-74
2022/12/08 01:32:51;;;;;;;2.08;0.20;;;2.80;99.90;;;;;;5082534;28;20406;-74
2022/12/08 01:35:17;;;;;;;3.50;0.20;;;2.80;99.90;;;;;;5087216;28;20887;-74
2022/12/08 01:37:43;;;;;;;2.53;0.10;;;2.80;99.90;;;;;;5083316;28;20402;-74
2022/12/08 01:40:09;;;;;;;2.75;0.10;;;2.80;99.90;;;;;;5086301;28;20451;-74
2022/12/08 01:42:37;;;;;;;2.10;0.30;;;2.70;99.90;;;;;;5087771;28;20432;-74
2022/12/08 01:45:06;;;;;;;2.47;0.20;;;2.80;99.90;;;;;;5079372;28;20396;-74
2022/12/08 01:47:38;;;;;;;2.17;0.07;;;2.70;99.90;;;;;;5083390;28;20417;-74
2022/12/08 01:50:07;;;;;;;2.28;0.10;;;2.70;99.90;;;;;;5076804;28;20411;-74
2022/12/08 01:52:39;;;;;;;3.10;0.30;;;2.60;99.90;;;;;;5071806;28;20398;-74
2022/12/08 01:55:16;;;;;;;2.00;0.10;;;2.60;99.90;;;;;;5083677;28;20483;-74
2022/12/08 01:57:46;;;;;;;2.45;0.10;;;2.50;99.90;;;;;;5086918;28;20436;-74
2022/12/08 02:00:14;;;;;;;3.40;0.17;;;2.40;99.90;;;;;;5082994;28;20465;-74
2022/12/08 02:02:57;;;;;;;1.48;0.10;;;2.30;99.90;;;;;;5074679;28;20480;-74
2022/12/08 02:05:26;;;;;;;0.90;0.10;;;2.30;99.90;;;;;;5079476;28;20991;-74
2022/12/08 02:07:53;;;;;;;1.10;0.10;;;2.20;99.90;;;;;;5079861;28;20399;-74
2022/12/08 02:10:21;;;;;;;1.58;0.20;;;2.10;99.90;;;;;;5071549;28;20506;-74
2022/12/08 02:12:49;;;;;;;1.42;0.10;;;2.10;99.90;;;;;;5078601;28;20403;-74
2022/12/08 02:15:15;;;;;;;2.57;0.30;;;2.10;99.90;;;;;;5084939;28;20929;-74
2022/12/08 02:17:43;;;;;;;2.70;0.10;;;2.10;99.90;;;;;;5077733;28;20404;-74
2022/12/08 02:20:26;;;;;;;1.77;0.17;;;2.10;99.90;;;;;;5082602;28;20407;-74
2022/12/08 02:22:58;;;;;;;1.57;0.10;;;2.00;99.90;;;;;;5080955;28;20972;-74
2022/12/08 02:25:58;;;;;;;1.60;0.10;;;2.00;99.90;;;;;;5093352;28;20915;-74
2022/12/08 02:29:02;;;;;;;2.40;0.20;;;2.10;99.90;;;;;;5087773;28;20454;-74
2022/12/08 02:31:45;;;;;;;2.70;0.20;;;2.10;99.90;;;;;;5051161;28;20412;-74
2022/12/08 02:34:42;;;;;;;2.27;0.30;;;2.10;99.90;;;;;;5076800;28;20779;-74
2022/12/08 02:37:15;;;;;;;3.38;0.20;;;2.20;99.90;;;;;;5082798;28;20410;-74
2022/12/08 02:39:54;;;;;;;0.98;0.10;;;2.20;99.90;;;;;;5057251;28;20413;-74
2022/12/08 02:42:29;;;;;;;2.67;0.20;;;2.20;99.90;;;;;;5087482;28;20406;-74
2022/12/08 02:45:15;;;;;;;1.57;0.13;;;2.20;99.90;;;;;;5078250;28;20414;-74
2022/12/08 02:47:42;;;;;;;1.30;0.10;;;2.20;99.90;;;;;;5080855;28;20430;-74
2022/12/08 02:50:09;;;;;;;3.20;0.20;;;2.20;99.90;;;;;;5065059;28;20473;-74
2022/12/08 02:52:42;;;;;;;1.65;0.20;;;2.20;99.90;;;;;;5049309;28;20419;-74
2022/12/08 02:55:26;;;;;;;2.85;0.17;;;2.20;99.90;;;;;;5080534;28;20914;-74
2022/12/08 02:58:04;;;;;;;3.42;0.22;;;2.20;99.90;;;;;;5080456;28;20436;-74
2022/12/08 03:00:51;;;;;;;2.53;0.20;;;2.20;99.90;;;;;;5081650;28;20406;-74
2022/12/08 03:03:36;;;;;;;2.47;0.20;;;2.20;99.90;;;;;;5072934;28;20411;-74
2022/12/08 03:06:08;;;;;;;3.70;0.35;;;2.20;99.90;;;;;;5084585;28;20432;-74
2022/12/08 03:08:54;;;;;;;4.00;0.27;;;2.30;99.90;;;;;;5073515;28;20840;-74
2022/12/08 03:11:47;;;;;;;1.80;0.20;;;2.30;99.90;;;;;;5084665;28;20455;-74
2022/12/08 03:14:16;;;;;;;2.50;0.15;;;2.30;99.90;;;;;;5085046;28;20808;-74
2022/12/08 03:16:46;;;;;;;3.20;0.50;;;2.40;99.90;;;;;;5085718;28;20419;-74
2022/12/08 03:19:18;;;;;;;1.92;0.10;;;2.40;99.90;;;;;;5074193;28;20416;-74
2022/12/08 03:21:50;;;;;;;1.70;0.20;;;2.40;99.90;;;;;;5088983;28;20398;-74
2022/12/08 03:24:17;;;;;;;2.45;0.10;;;2.50;99.90;;;;;;5078028;28;20404;-74
2022/12/08 03:26:49;;;;;;;2.30;0.20;;;2.50;99.90;;;;;;5073387;28;20825;-74
2022/12/08 03:29:15;;;;;;;1.40;0.20;;;2.50;99.90;;;;;;5087018;28;20402;-74
2022/12/08 03:31:49;;;;;;;0.93;0.10;;;2.50;99.90;;;;;;5090304;28;20402;-74
2022/12/08 03:34:17;;;;;;;2.65;0.20;;;2.50;99.90;;;;;;5066735;28;20411;-74
2022/12/08 03:36:44;;;;;;;2.17;0.40;;;2.60;99.90;;;;;;5068880;28;20407;-74
2022/12/08 03:39:10;;;;;;;1.80;0.20;;;2.50;99.90;;;;;;5089481;28;20406;-74
2022/12/08 03:41:35;;;;;;;2.05;0.20;;;2.50;99.90;;;;;;5090115;28;20412;-74
2022/12/08 03:44:01;;;;;;;1.35;0.10;;;2.50;99.90;;;;;;5075236;28;20400;-74
2022/12/08 03:46:29;;;;;;;1.63;0.20;;;2.50;99.90;;;;;;5079423;28;20444;-74
2022/12/08 03:48:55;;;;;;;1.00;0.15;;;2.40;99.90;;;;;;5086724;28;20515;-74
2022/12/08 03:51:21;;;;;;;0.70;0.10;;;2.50;99.90;;;;;;5090313;28;20919;-74
2022/12/08 03:53:47;;;;;;;1.45;0.20;;;2.40;99.90;;;;;;5089448;28;21310;-74
2022/12/08 03:56:31;;;;;;;1.52;0.25;;;2.40;99.90;;;;;;5089993;28;20390;-74
2022/12/08 03:58:57;;;;;;;1.37;0.10;;;2.40;99.90;;;;;;5089399;28;20406;-74
2022/12/08 04:01:23;;;;;;;1.10;0.10;;;2.30;99.90;;;;;;5076567;28;20442;-74
2022/12/08 04:03:49;;;;;;;1.20;0.10;;;2.30;99.90;;;;;;5090291;28;20402;-73
2022/12/08 04:06:16;;;;;;;1.80;0.10;;;2.30;99.90;;;;;;5089618;28;20510;-74
2022/12/08 04:08:41;;;;;;;0.37;0.10;;;2.30;99.90;;;;;;5087759;28;20394;-74
2022/12/08 04:11:07;;;;;;;2.50;0.10;;;2.30;99.90;;;;;;5070573;28;20487;-74
2022/12/08 04:13:34;;;;;;;0.95;0.10;;;2.30;99.90;;;;;;5083814;28;20417;-74
2022/12/08 04:16:00;;;;;;;2.08;0.10;;;2.30;99.90;;;;;;5060983;28;20786;-74
2022/12/08 04:18:26;;;;;;;0.55;0.10;;;2.30;99.90;;;;;;5086020;28;20486;-74
2022/12/08 04:20:52;;;;;;;0.80;0.10;;;2.20;99.90;;;;;;5067184;28;20899;-74
2022/12/08 04:23:17;;;;;;;1.92;0.20;;;2.20;99.90;;;;;;5084131;28;20454;-73
2022/12/08 04:25:43;;;;;;;2.13;0.20;;;2.30;99.90;;;;;;5083905;28;20465;-74
2022/12/08 04:28:09;;;;;;;2.27;0.27;;;2.20;99.90;;;;;;5078192;28;20415;-73
2022/12/08 04:30:34;;;;;;;3.00;0.60;;;2.20;99.90;;;;;;5083670;28;20408;-74
2022/12/08 04:33:00;;;;;;;1.83;0.30;;;2.20;99.90;;;;;;5080204;28;20407;-73
2022/12/08 04:35:26;;;;;;;2.20;0.30;;;2.20;99.90;;;;;;5078718;28;20469;-74
2022/12/08 04:37:52;;;;;;;1.23;0.20;;;2.20;99.90;;;;;;5088090;28;20494;-74
2022/12/08 04:40:17;;;;;;;0.95;0.20;;;2.30;99.90;;;;;;5077395;28;20428;-74
2022/12/08 04:42:43;;;;;;;1.20;0.30;;;2.30;99.90;;;;;;5080923;28;20404;-74
2022/12/08 04:45:09;;;;;;;2.50;0.20;;;2.30;99.90;;;;;;5079270;28;20811;-74
2022/12/08 04:47:35;;;;;;;2.00;0.22;;;2.30;99.90;;;;;;5076447;28;20471;-74
2022/12/08 04:50:01;;;;;;;2.15;0.22;;;2.30;99.90;;;;;;5084460;28;20441;-73
2022/12/08 04:52:26;;;;;;;1.43;0.20;;;2.30;99.90;;;;;;5088507;28;21030;-74
2022/12/08 04:54:52;;;;;;;1.45;0.10;;;2.40;99.90;;;;;;5084128;28;20406;-74
2022/12/08 04:57:18;;;;;;;1.37;0.30;;;2.40;99.90;;;;;;5068943;28;20926;-74
2022/12/08 04:59:43;;;;;;;3.58;0.20;;;2.40;99.90;;;;;;5083717;28;20430;-74
2022/12/08 05:02:09;;;;;;;2.85;0.40;;;2.40;99.90;;;;;;5086780;28;20463;-74
2022/12/08 05:04:34;;;;;;;2.03;0.20;;;2.40;99.90;;;;;;5087919;28;20394;-74
2022/12/08 05:07:00;;;;;;;2.33;0.40;;;2.40;99.90;;;;;;5088118;28;20429;-74
2022/12/08 05:09:27;;;;;;;1.70;0.20;;;2.40;99.90;;;;;;5087539;28;20963;-74
2022/12/08 05:11:52;;;;;;;3.10;0.22;;;2.40;99.90;;;;;;5080640;28;20422;-74
2022/12/08 05:14:18;;;;;;;2.50;0.20;;;2.40;99.90;;;;;;5093877;28;20904;-74
2022/12/08 05:16:45;;;;;;;4.20;0.20;;;2.40;99.90;;;;;;5071336;28;20412;-74
2022/12/08 05:19:11;;;;;;;1.42;0.20;;;2.40;99.90;;;;;;5075429;28;20478;-74
2022/12/08 05:21:36;;;;;;;1.73;0.10;;;2.40;99.90;;;;;;5069108;28;20478;-74
2022/12/08 05:24:02;;;;;;;4.57;0.40;;;2.40;99.90;;;;;;5084168;28;20881;-74
2022/12/08 05:26:28;;;;;;;1.60;0.10;;;2.40;99.90;;;;;;5079929;28;20435;-74
2022/12/08 05:28:53;;;;;;;1.87;0.30;;;2.40;99.90;;;;;;5064829;28;20941;-74
2022/12/08 05:31:19;;;;;;;2.58;0.20;;;2.40;99.90;;;;;;5088406;28;20471;-74
2022/12/08 05:33:45;;;;;;;3.10;0.30;;;2.40;99.90;;;;;;5073192;28;20431;-74
2022/12/08 05:36:13;;;;;;;2.47;0.20;;;2.40;99.90;;;;;;5071669;28;20431;-74
2022/12/08 05:38:39;;;;;;;2.17;0.30;;;2.40;99.90;;;;;;5082137;28;20447;-74
2022/12/08 05:41:06;;;;;;;1.70;0.40;;;2.40;99.90;;;;;;5088137;28;20398;-74
2022/12/08 05:43:32;;;;;;;2.50;0.30;;;2.30;99.90;;;;;;5087939;28;20402;-74
2022/12/08 05:45:58;;;;;;;1.93;0.10;;;2.30;99.90;;;;;;5088081;28;20920;-74
2022/12/08 05:48:24;;;;;;;2.30;0.10;;;2.20;99.90;;;;;;5087621;28;20495;-74
2022/12/08 05:50:50;;;;;;;3.17;0.20;;;2.20;99.90;;;;;;5074176;28;20502;-74
2022/12/08 05:53:17;;;;;;;2.90;0.20;;;2.20;99.90;;;;;;5068634;28;20488;-74
2022/12/08 05:55:43;;;;;;;5.18;0.32;;;2.10;99.90;;;;;;5086199;28;20417;-74
2022/12/08 05:58:18;;;;;;;2.38;0.20;;;2.00;99.90;;;;;;5085528;28;20769;-74
2022/12/08 06:00:44;;;;;;;2.78;0.25;;;2.00;99.90;;;;;;5086330;28;20931;-74
2022/12/08 06:03:14;;;;;;;2.70;0.30;;;1.90;99.90;;;;;;5073912;28;20401;-74
2022/12/08 06:05:41;;;;;;;5.88;0.35;;;1.90;99.90;;;;;;5076394;28;20857;-74
2022/12/08 06:08:07;;;;;;;4.72;0.30;;;1.80;99.90;;;;;;5066742;28;20404;-74
2022/12/08 06:10:33;;;;;;;4.60;0.60;;;1.80;99.90;;;;;;5067328;28;20491;-74
2022/12/08 06:12:59;;;;;;;1.98;0.30;;;1.80;99.90;;;;;;5059036;28;20413;-74
2022/12/08 06:15:24;;;;;;;1.85;0.40;;;1.70;99.90;;;;;;5084947;28;20422;-74
2022/12/08 06:17:50;;;;;;;2.80;0.20;;;1.70;99.90;;;;;;5077069;28;20406;-74
2022/12/08 06:20:16;;;;;;;4.57;0.60;;;1.60;99.90;;;;;;5067526;28;20402;-74
2022/12/08 06:22:42;;;;;;;6.68;1.00;;;1.60;99.90;;;;;;5078725;28;20497;-74
2022/12/08 06:25:08;;;;;;;5.50;0.80;;;1.60;99.90;;;;;;5086073;28;20489;-74
2022/12/08 06:27:33;;;;;;;4.85;0.43;;;1.60;99.90;;;;;;5077500;28;21006;-74
2022/12/08 06:29:59;;;;;;;1.70;0.43;;;1.60;99.90;;;;;;5080830;28;20481;-74
2022/12/08 06:32:25;;;;;;;2.50;0.30;;;1.60;99.90;;;;;;5069855;28;20457;-74
2022/12/08 06:34:51;;;;;;;3.20;0.50;;;1.60;99.90;;;;;;5070824;28;20408;-74
2022/12/08 06:37:17;;;;;;;5.05;0.57;;;1.60;99.90;;;;;;5077050;28;20766;-74
2022/12/08 06:39:43;;;;;;;3.17;0.40;;;1.50;99.90;;;;;;5083322;28;20458;-74
2022/12/08 06:44:52;;;;;;;4.25;0.45;;;1.50;99.90;;;;;;5085605;28;20438;-73
2022/12/08 06:47:20;;;;;;;3.60;0.70;;;1.50;99.90;;;;;;5087092;28;20456;-74
2022/12/08 06:49:46;;;;;;;4.60;0.50;;;1.60;99.90;;;;;;5089847;28;20398;-74
2022/12/08 06:52:11;;;;;;;2.60;0.40;;;1.50;99.90;;;;;;5091327;28;20788;-74
2022/12/08 06:54:37;;;;;;;3.70;0.50;;;1.50;99.90;;;;;;5090599;28;20405;-73
2022/12/08 06:57:03;;;;;;;3.28;0.70;;;1.50;99.90;;;;;;5091179;28;20484;-73
2022/12/08 06:59:29;;;;;;;3.30;0.50;;;1.50;99.90;;;;;;5090891;28;20398;-73
2022/12/08 07:01:54;;;;;;;5.10;0.88;;;1.50;99.90;;;;;;5090903;28;20397;-74
2022/12/08 07:04:20;;;;;;;3.57;0.73;;;1.50;99.90;;;;;;5090846;28;20892;-74
2022/12/08 07:06:46;;;;;;;4.68;0.93;;;1.40;99.90;;;;;;5080146;28;20524;-73
2022/12/08 07:09:11;;;;;;;6.67;1.00;;;1.50;99.90;;;;;;5079740;28;20434;-73
2022/12/08 07:11:38;;;;;;;5.53;1.05;;;1.50;99.90;;;;;;5083207;28;20620;-73
2022/12/08 07:14:04;;;;;;;4.05;1.10;;;1.60;99.90;;;;;;5088845;28;20863;-73
2022/12/08 07:16:29;;;;;;;5.40;1.23;;;1.60;99.90;;;;;;5084990;28;20435;-73
2022/12/08 07:18:55;;;;;;;5.13;1.38;;;1.60;99.90;;;;;;5089430;28;20507;-73
2022/12/08 07:21:20;;;;;;;4.77;1.33;;;1.60;99.90;;;;;;5085674;28;20398;-73
2022/12/08 07:23:48;;;;;;;5.22;1.85;;;1.70;99.90;;;;;;5086275;28;20438;-73
2022/12/08 07:26:13;;;;;;;8.82;2.92;;;1.60;99.90;;;;;;5098113;28;20428;-73
2022/12/08 07:28:40;;;;;;;8.27;2.90;;;1.60;99.90;;;;;;5089350;28;20409;-73
2022/12/08 07:31:14;;;;;;;8.68;2.90;;;1.60;99.90;;;;;;5094599;28;20406;-73
2022/12/08 07:33:39;;;;;;;8.18;3.47;;;1.60;99.90;;;;;;5092350;28;20451;-73
2022/12/08 07:36:05;;;;;;;7.20;2.90;;;1.50;99.90;;;;;;5084332;28;20489;-73
2022/12/08 07:38:31;;;;;;;10.63;3.53;;;1.50;99.90;;;;;;5087770;28;21031;-73
2022/12/08 07:40:58;;;;;;;8.35;2.85;;;1.50;99.90;;;;;;5089322;28;20539;-73
2022/12/08 07:43:23;;;;;;;8.00;3.03;;;1.40;99.90;;;;;;5076444;28;20409;-73
2022/12/08 07:45:49;;;;;;;9.30;2.90;;;1.40;99.90;;;;;;5073568;28;20400;-73
2022/12/08 07:48:15;;;;;;;7.45;2.80;;;1.40;99.90;;;;;;5083862;28;20402;-73
2022/12/08 07:50:41;;;;;;;7.47;2.90;;;1.40;99.90;;;;;;5080637;28;21168;-73
2022/12/08 07:53:07;;;;;;;9.32;3.17;;;1.30;99.90;;;;;;5093088;28;20450;-74
2022/12/08 07:55:33;;;;;;;10.00;3.38;;;1.40;99.90;;;;;;5075939;28;20407;-74
2022/12/08 07:57:59;;;;;;;10.18;3.75;;;1.30;99.90;;;;;;5082231;28;20901;-74
2022/12/08 08:00:24;;;;;;;10.93;3.97;;;1.30;99.90;;;;;;5072677;28;20745;-73
2022/12/08 08:02:50;;;;;;;11.45;4.30;;;1.30;99.90;;;;;;5075429;28;20457;-74
2022/12/08 08:05:16;;;;;;;11.07;4.60;;;1.30;99.90;;;;;;5070830;28;20404;-73
2022/12/08 08:07:42;;;;;;;12.05;4.18;;;1.20;99.90;;;;;;5080219;28;20427;-73
2022/12/08 08:10:09;;;;;;;8.38;3.83;;;1.20;99.90;;;;;;5076302;28;20406;-73
2022/12/08 08:12:36;;;;;;;10.25;3.50;;;1.20;99.90;;;;;;5081280;28;20421;-73
2022/12/08 08:15:06;;;;;;;10.68;3.47;;;1.20;99.90;;;;;;5069307;28;20411;-73
2022/12/08 08:17:33;;;;;;;8.98;3.20;;;1.10;99.90;;;;;;5080256;28;21157;-73
2022/12/08 08:19:58;;;;;;;9.25;2.67;;;1.10;99.90;;;;;;5078042;28;20425;-74
2022/12/08 08:22:25;;;;;;;7.03;2.37;;;1.10;99.90;;;;;;5079781;28;20467;-73
2022/12/08 08:24:51;;;;;;;6.22;1.90;;;1.10;99.90;;;;;;5092954;28;20409;-73
2022/12/08 08:27:16;;;;;;;5.37;1.70;;;1.10;99.90;;;;;;5074896;28;20431;-74
2022/12/08 08:29:42;;;;;;;4.97;2.00;;;1.10;99.90;;;;;;5082430;28;20399;-73
2022/12/08 08:32:07;;;;;;;5.93;2.40;;;1.10;99.90;;;;;;5081405;28;20540;-73
2022/12/08 08:34:33;;;;;;;4.10;1.40;;;1.10;99.90;;;;;;5077529;28;20530;-73
2022/12/08 08:36:59;;;;;;;6.03;1.25;;;1.10;99.90;;;;;;5072896;28;20569;-73
2022/12/08 08:39:24;;;;;;;3.43;1.40;;;1.20;99.90;;;;;;5082182;28;20394;-72
2022/12/08 08:41:50;;;;;;;4.65;1.40;;;1.20;99.90;;;;;;5073344;28;20490;-73
2022/12/08 08:44:15;;;;;;;4.90;1.60;;;1.20;99.90;;;;;;5070724;28;20410;-72
2022/12/08 08:46:41;;;;;;;4.53;1.40;;;1.20;99.90;;;;;;5076359;28;20429;-72
2022/12/08 08:49:07;;;;;;;5.77;1.80;;;1.30;99.90;;;;;;5099114;28;20751;-74
2022/12/08 08:51:33;;;;;;;5.97;1.60;;;1.30;99.90;;;;;;5067166;28;20406;-73
2022/12/08 08:53:58;;;;;;;5.97;1.88;;;1.30;99.90;;;;;;5071220;28;20407;-72
2022/12/08 08:56:24;;;;;;;4.70;2.17;;;1.40;99.90;;;;;;5081435;28;20441;-73
2022/12/08 08:58:51;;;;;;;5.40;2.05;;;1.40;99.90;;;;;;5087686;28;20402;-73
2022/12/08 09:01:20;;;;;;;8.35;2.15;;;1.40;99.90;;;;;;5088587;28;20436;-73
2022/12/08 09:03:46;;;;;;;6.35;1.90;;;1.40;99.90;;;;;;5088691;28;20479;-73
2022/12/08 09:06:12;;;;;;;5.70;2.10;;;1.40;99.90;;;;;;5084294;28;20474;-73
2022/12/08 09:08:38;;;;;;;5.83;2.50;;;1.40;99.90;;;;;;5075939;28;20432;-73
2022/12/08 09:11:05;;;;;;;5.43;2.30;;;1.50;99.90;;;;;;5087835;28;20452;-73
2022/12/08 09:13:30;;;;;;;6.00;2.70;;;1.50;99.90;;;;;;5074520;28;20509;-73
2022/12/08 09:15:56;;;;;;;8.02;2.30;;;1.60;99.90;;;;;;5088377;28;20536;-73
2022/12/08 09:18:22;;;;;;;5.60;2.10;;;1.60;99.90;;;;;;5075259;28;20405;-73
2022/12/08 09:20:47;;;;;;;6.97;2.20;;;1.60;99.90;;;;;;5074779;28;20455;-72
2022/12/08 09:23:13;;;;;;;5.97;2.20;;;1.70;99.90;;;;;;5071270;28;20416;-73
2022/12/08 09:25:42;;;;;;;5.22;1.90;;;1.70;99.90;;;;;;5082651;28;20872;-73
2022/12/08 09:28:08;;;;;;;8.15;1.90;;;1.70;99.90;;;;;;5075571;28;20468;-73
2022/12/08 09:30:33;;;;;;;7.78;1.73;;;1.80;99.90;;;;;;5087267;28;20463;-73
2022/12/08 09:32:59;;;;;;;4.93;1.67;;;1.80;99.90;;;;;;5075285;28;20406;-73
2022/12/08 09:35:24;;;;;;;6.40;1.80;;;1.80;99.90;;;;;;5087463;28;20483;-73
2022/12/08 09:37:50;;;;;;;5.37;1.57;;;1.80;99.90;;;;;;5075176;28;20765;-73
2022/12/08 09:40:19;;;;;;;5.97;1.90;;;1.80;99.90;;;;;;5087977;28;20406;-73
2022/12/08 09:43:00;;;;;;;5.70;1.85;;;1.80;99.90;;;;;;5087808;28;20417;-73
2022/12/08 09:45:29;;;;;;;5.97;1.70;;;1.90;99.90;;;;;;5082856;28;20422;-73
2022/12/08 09:48:12;;;;;;;6.32;1.55;;;1.90;99.90;;;;;;5069791;28;20433;-72
2022/12/08 09:50:55;;;;;;;4.10;1.33;;;2.00;99.90;;;;;;5067093;28;20516;-72
2022/12/08 09:53:33;;;;;;;5.33;1.10;;;2.00;99.90;;;;;;5083722;28;20499;-72
2022/12/08 09:56:20;;;;;;;5.88;1.00;;;2.10;99.90;;;;;;5082732;28;20446;-73
2022/12/08 09:59:04;;;;;;;4.32;0.80;;;2.20;99.90;;;;;;5082578;28;20428;-73
2022/12/08 10:01:37;;;;;;;6.47;1.10;;;2.20;99.90;;;;;;5083048;28;20469;-72
2022/12/08 10:04:04;;;;;;;5.25;1.00;;;2.30;99.90;;;;;;5086018;28;20410;-73
2022/12/08 10:06:35;;;;;;;3.57;1.00;;;2.40;99.90;;;;;;5085383;28;20462;-73
2022/12/08 10:09:28;;;;;;;4.10;0.75;;;2.50;99.90;;;;;;5090487;28;20406;-73
2022/12/08 10:12:23;;;;;;;5.60;0.90;;;2.60;99.90;;;;;;5095477;28;20429;-72
2022/12/08 10:15:30;;;;;;;7.20;1.10;;;2.70;99.90;;;;;;5073836;28;20935;-73
2022/12/08 10:17:59;;;;;;;4.50;0.82;;;2.80;99.90;;;;;;5086898;28;20445;-73
2022/12/08 10:20:32;;;;;;;3.80;0.90;;;2.90;99.90;;;;;;5078216;28;20479;-72
2022/12/08 10:23:11;;;;;;;5.03;1.10;;;2.90;99.90;;;;;;5081072;28;20506;-72
2022/12/08 10:25:47;;;;;;;2.78;0.60;;;2.90;99.90;;;;;;5065730;28;20431;-73
2022/12/08 10:28:13;;;;;;;5.47;0.85;;;2.90;99.90;;;;;;5079683;28;20513;-73
2022/12/08 10:30:39;;;;;;;3.85;0.70;;;2.80;99.90;;;;;;5088242;28;20425;-73
2022/12/08 10:33:13;;;;;;;3.63;0.50;;;2.80;99.90;;;;;;5081530;28;20423;-73
2022/12/08 10:35:57;;;;;;;3.20;0.70;;;2.80;99.90;;;;;;5100400;28;20502;-73
2022/12/08 10:38:29;;;;;;;5.30;0.90;;;2.80;99.90;;;;;;5095842;28;20573;-73
2022/12/08 10:41:09;;;;;;;4.68;0.60;;;2.80;99.90;;;;;;5084300;28;20457;-72
2022/12/08 10:43:40;;;;;;;4.18;0.88;;;2.90;99.90;;;;;;5093829;28;21124;-73
2022/12/08 10:46:12;;;;;;;4.25;0.50;;;3.00;99.90;;;;;;5088013;28;20564;-73
2022/12/08 10:49:09;;;;;;;4.23;0.70;;;3.10;99.90;;;;;;5086185;28;20413;-73
2022/12/08 10:51:40;;;;;;;3.67;0.80;;;3.20;99.90;;;;;;5066966;28;20520;-73
2022/12/08 10:54:27;;;;;;;5.88;0.95;;;3.50;99.90;;;;;;5071751;28;20417;-73
2022/12/08 10:56:54;;;;;;;3.17;0.60;;;3.60;99.90;;;;;;5075735;28;20488;-73
2022/12/08 10:59:20;;;;;;;4.10;1.00;;;3.70;99.90;;;;;;5084866;28;21027;-73
2022/12/08 11:01:51;;;;;;;4.53;0.80;;;3.80;99.90;;;;;;5079446;28;20437;-73
2022/12/08 11:04:30;;;;;;;5.35;1.08;;;4.00;99.90;;;;;;5074372;28;21210;-73
2022/12/08 11:06:55;;;;;;;3.38;0.68;;;4.20;99.90;;;;;;5084906;28;20436;-73
2022/12/08 11:09:28;;;;;;;5.30;1.07;;;4.30;99.90;;;;;;5100825;28;21073;-73
2022/12/08 11:11:57;;;;;;;3.67;0.77;;;4.70;99.90;;;;;;5068013;28;20474;-73
2022/12/08 11:14:32;;;;;;;4.60;0.70;;;5.40;99.90;;;;;;5074122;28;20516;-73
2022/12/08 11:17:08;;;;;;;4.18;0.60;;;6.00;99.90;;;;;;5078134;28;20909;-73
2022/12/08 11:19:53;;;;;;;4.72;0.77;;;6.50;99.90;;;;;;5082405;28;20924;-73
2022/12/08 11:22:31;;;;;;;6.75;0.57;;;6.80;99.90;;;;;;5076091;28;20427;-73
2022/12/08 11:25:18;;;;;;;3.30;0.50;;;6.90;99.90;;;;;;5084418;28;20418;-73
2022/12/08 11:27:47;;;;;;;2.78;0.32;;;6.80;99.90;;;;;;5083579;28;20440;-73
2022/12/08 11:30:19;;;;;;;3.38;0.40;;;6.50;99.90;;;;;;5085640;28;20410;-73
2022/12/08 11:32:47;;;;;;;3.73;0.50;;;6.40;99.90;;;;;;5089983;28;20489;-73
2022/12/08 11:35:40;;;;;;;2.55;0.40;;;6.40;99.90;;;;;;5082864;28;20477;-73
2022/12/08 11:38:20;;;;;;;3.55;0.40;;;6.20;99.90;;;;;;5080541;28;20423;-73
2022/12/08 11:40:49;;;;;;;4.15;0.40;;;5.90;99.90;;;;;;5087787;28;20451;-73
2022/12/08 11:43:26;;;;;;;1.48;0.35;;;5.70;99.90;;;;;;5089949;28;20463;-73
2022/12/08 11:45:59;;;;;;;2.85;0.50;;;5.50;99.90;;;;;;5082739;28;20812;-73
2022/12/08 11:48:36;;;;;;;5.50;0.70;;;5.40;99.90;;;;;;5080724;28;20485;-73
2022/12/08 11:51:11;;;;;;;1.47;0.30;;;5.30;99.90;;;;;;5076748;28;20424;-73
2022/12/08 11:53:58;;;;;;;3.50;0.30;;;5.30;99.90;;;;;;5074439;28;21217;-73
2022/12/08 11:56:44;;;;;;;2.83;0.40;;;5.30;99.90;;;;;;5071016;28;20462;-73
2022/12/08 11:59:18;;;;;;;2.30;0.25;;;5.30;99.90;;;;;;5072942;28;21039;-73
2022/12/08 12:01:44;;;;;;;2.85;0.30;;;5.20;99.90;;;;;;5080290;28;20425;-73
2022/12/08 12:04:14;;;;;;;3.77;0.50;;;5.20;99.90;;;;;;5083057;28;20423;-73
2022/12/08 12:07:06;;;;;;;2.75;0.40;;;5.30;99.90;;;;;;5083159;28;20410;-73
2022/12/08 12:09:47;;;;;;;3.92;0.30;;;5.60;99.90;;;;;;5071721;28;20464;-73
2022/12/08 12:12:44;;;;;;;3.72;0.30;;;5.80;99.90;;;;;;5079404;28;20432;-73
2022/12/08 12:15:15;;;;;;;2.42;0.20;;;6.00;99.90;;;;;;5096063;28;20410;-73
2022/12/08 12:17:59;;;;;;;2.40;0.30;;;5.80;99.90;;;;;;5086506;28;20414;-72
2022/12/08 12:20:41;;;;;;;2.90;0.20;;;5.50;99.90;;;;;;5086280;28;20482;-73
2022/12/08 12:23:38;;;;;;;2.67;0.35;;;5.30;99.90;;;;;;5074654;28;20423;-73
2022/12/08 12:26:18;;;;;;;0.95;0.25;;;5.10;99.90;;;;;;5084924;28;20402;-73
2022/12/08 12:28:56;;;;;;;3.28;0.20;;;4.90;99.90;;;;;;5084722;28;20920;-73
2022/12/08 12:31:32;;;;;;;2.08;0.35;;;4.80;99.90;;;;;;5075447;28;20422;-72
2022/12/08 12:34:25;;;;;;;1.45;0.20;;;4.80;99.90;;;;;;5075970;28;20433;-73
2022/12/08 12:37:09;;;;;;;2.03;0.40;;;4.70;99.90;;;;;;5080064;28;21042;-73
2022/12/08 12:39:52;;;;;;;2.40;0.27;;;4.70;99.90;;;;;;5080067;28;20493;-73
2022/12/08 12:42:35;;;;;;;2.33;0.20;;;4.70;99.90;;;;;;5085100;28;20928;-73
2022/12/08 12:45:32;;;;;;;1.77;0.30;;;4.60;99.90;;;;;;5092705;28;20499;-73
2022/12/08 12:47:58;;;;;;;3.30;0.30;;;4.60;99.90;;;;;;5070350;28;20993;-73
2022/12/08 12:50:33;;;;;;;1.33;0.20;;;4.60;99.90;;;;;;5059982;28;20869;-73
2022/12/08 12:53:04;;;;;;;3.20;0.40;;;4.80;99.90;;;;;;5087520;28;20418;-74
2022/12/08 12:55:44;;;;;;;1.25;0.20;;;4.90;99.90;;;;;;5094001;28;20424;-73
2022/12/08 12:58:19;;;;;;;1.50;0.10;;;5.10;99.90;;;;;;5072631;28;20427;-73
2022/12/08 13:00:44;;;;;;;1.98;0.10;;;5.60;99.90;;;;;;5073316;28;20400;-73
2022/12/08 13:03:14;;;;;;;0.50;0.10;;;6.00;99.90;;;;;;5071700;28;20417;-73
2022/12/08 13:05:51;;;;;;;1.15;0.10;;;6.00;99.90;;;;;;5070650;28;20434;-73
2022/12/08 13:08:25;;;;;;;1.27;0.10;;;5.80;99.90;;;;;;5076942;28;20424;-74
2022/12/08 13:11:03;;;;;;;1.47;0.10;;;5.70;99.90;;;;;;5082538;28;20412;-74
2022/12/08 13:13:29;;;;;;;1.52;0.13;;;5.60;99.90;;;;;;5078887;28;20413;-73
2022/12/08 13:16:02;;;;;;;1.55;0.20;;;5.60;99.90;;;;;;5076239;28;20422;-73
2022/12/08 13:18:45;;;;;;;2.28;0.20;;;5.50;99.90;;;;;;5075178;28;20400;-73
2022/12/08 13:21:17;;;;;;;0.57;0.08;;;5.30;99.90;;;;;;5072196;28;21064;-73
2022/12/08 13:24:18;;;;;;;3.15;0.20;;;5.20;99.90;;;;;;5084056;28;21169;-73